sensor_id;sensor_type;location;lat;lon;timestamp;pressure;altitude;pressure_sealevel;temperature;humidity
4617;BME280;2321;42.704;23.384;2022-07-29T00:00:07;95586.75;;;21.43;100.00
4617;BME280;2321;42.704;23.384;2022-07-29T00:02:35;95594.56;;;21.40;100.00
4617;BME280;2321;42.704;23.384;2022-07-29T00:05:02;95603.75;;;21.39;100.00
4617;BME280;2321;42.704;23.384;2022-07-29T00:07:31;95603.03;;;21.49;100.00
4617;BME280;2321;42.704;23.384;2022-07-29T00:09:58;95608.34;;;21.38;100.00
4617;BME280;2321;42.704;23.384;2022-07-29T00:12:25;95615.09;;;21.36;100.00
4617;BME280;2321;42.704;23.384;2022-07-29T00:14:52;95618.84;;;21.34;100.00
4617;BME280;2321;42.704;23.384;2022-07-29T00:17:20;95611.19;;;21.26;100.00
4617;BME280;2321;42.704;23.384;2022-07-29T00:19:47;95614.88;;;21.15;100.00
4617;BME280;2321;42.704;23.384;2022-07-29T00:22:14;95611.81;;;21.06;100.00
4617;BME280;2321;42.704;23.384;2022-07-29T00:24:42;95612.13;;;21.09;100.00
4617;BME280;2321;42.704;23.384;2022-07-29T00:27:09;95607.63;;;21.20;100.00
4617;BME280;2321;42.704;23.384;2022-07-29T00:29:36;95613.34;;;21.24;100.00
4617;BME280;2321;42.704;23.384;2022-07-29T00:32:03;95614.38;;;21.18;100.00
4617;BME280;2321;42.704;23.384;2022-07-29T00:34:30;95611.00;;;21.05;100.00
4617;BME280;2321;42.704;23.384;2022-07-29T00:37:15;95600.91;;;21.00;100.00
4617;BME280;2321;42.704;23.384;2022-07-29T00:39:43;95600.34;;;20.98;100.00
4617;BME280;2321;42.704;23.384;2022-07-29T00:42:10;95600.84;;;20.95;100.00
4617;BME280;2321;42.704;23.384;2022-07-29T00:44:38;95603.22;;;20.92;100.00
4617;BME280;2321;42.704;23.384;2022-07-29T00:47:05;95611.34;;;20.92;100.00
4617;BME280;2321;42.704;23.384;2022-07-29T00:49:33;95616.34;;;21.00;100.00
4617;BME280;2321;42.704;23.384;2022-07-29T00:52:00;95620.94;;;20.99;100.00
4617;BME280;2321;42.704;23.384;2022-07-29T00:54:28;95608.72;;;20.97;100.00
4617;BME280;2321;42.704;23.384;2022-07-29T00:56:58;95615.75;;;20.98;100.00
4617;BME280;2321;42.704;23.384;2022-07-29T00:59:25;95620.28;;;20.92;100.00
4617;BME280;2321;42.704;23.384;2022-07-29T01:01:52;95612.69;;;20.89;100.00
4617;BME280;2321;42.704;23.384;2022-07-29T01:04:20;95606.41;;;20.83;100.00
4617;BME280;2321;42.704;23.384;2022-07-29T01:06:47;95612.91;;;20.82;100.00
4617;BME280;2321;42.704;23.384;2022-07-29T01:09:14;95606.94;;;20.85;100.00
4617;BME280;2321;42.704;23.384;2022-07-29T01:11:43;95610.84;;;20.95;100.00
4617;BME280;2321;42.704;23.384;2022-07-29T01:14:13;95599.78;;;20.74;100.00
4617;BME280;2321;42.704;23.384;2022-07-29T01:16:46;95599.38;;;20.60;100.00
4617;BME280;2321;42.704;23.384;2022-07-29T01:19:33;95598.16;;;20.50;100.00
4617;BME280;2321;42.704;23.384;2022-07-29T01:22:25;95584.31;;;20.46;100.00
4617;BME280;2321;42.704;23.384;2022-07-29T01:25:05;95602.19;;;20.48;100.00
4617;BME280;2321;42.704;23.384;2022-07-29T01:27:47;95594.53;;;20.39;100.00
4617;BME280;2321;42.704;23.384;2022-07-29T01:30:21;95595.91;;;20.42;100.00
4617;BME280;2321;42.704;23.384;2022-07-29T01:32:52;95601.06;;;20.43;100.00
4617;BME280;2321;42.704;23.384;2022-07-29T01:35:24;95603.81;;;20.49;100.00
4617;BME280;2321;42.704;23.384;2022-07-29T01:37:57;95595.59;;;20.38;100.00
4617;BME280;2321;42.704;23.384;2022-07-29T01:40:29;95591.34;;;20.25;100.00
4617;BME280;2321;42.704;23.384;2022-07-29T01:42:59;95589.97;;;20.22;100.00
4617;BME280;2321;42.704;23.384;2022-07-29T01:45:37;95582.50;;;20.30;100.00
4617;BME280;2321;42.704;23.384;2022-07-29T01:48:12;95573.50;;;20.24;100.00
4617;BME280;2321;42.704;23.384;2022-07-29T01:50:45;95566.69;;;20.21;100.00
4617;BME280;2321;42.704;23.384;2022-07-29T01:53:16;95578.16;;;20.29;100.00
4617;BME280;2321;42.704;23.384;2022-07-29T01:55:48;95569.72;;;20.25;100.00
4617;BME280;2321;42.704;23.384;2022-07-29T01:58:18;95576.09;;;20.36;100.00
4617;BME280;2321;42.704;23.384;2022-07-29T02:00:48;95577.16;;;20.35;100.00
4617;BME280;2321;42.704;23.384;2022-07-29T02:03:17;95580.19;;;20.39;100.00
4617;BME280;2321;42.704;23.384;2022-07-29T02:05:47;95568.00;;;20.36;100.00
4617;BME280;2321;42.704;23.384;2022-07-29T02:08:15;95574.69;;;20.33;100.00
4617;BME280;2321;42.704;23.384;2022-07-29T02:10:44;95564.59;;;20.23;100.00
4617;BME280;2321;42.704;23.384;2022-07-29T02:13:13;95566.78;;;20.27;100.00
4617;BME280;2321;42.704;23.384;2022-07-29T02:15:42;95564.19;;;20.37;100.00
4617;BME280;2321;42.704;23.384;2022-07-29T02:18:15;95569.38;;;20.39;100.00
4617;BME280;2321;42.704;23.384;2022-07-29T02:20:45;95565.16;;;20.25;100.00
4617;BME280;2321;42.704;23.384;2022-07-29T02:23:17;95564.50;;;20.18;100.00
4617;BME280;2321;42.704;23.384;2022-07-29T02:25:48;95573.19;;;20.20;100.00
4617;BME280;2321;42.704;23.384;2022-07-29T02:28:16;95572.59;;;20.18;100.00
4617;BME280;2321;42.704;23.384;2022-07-29T02:30:45;95576.94;;;20.19;100.00
4617;BME280;2321;42.704;23.384;2022-07-29T02:33:15;95572.59;;;20.18;100.00
4617;BME280;2321;42.704;23.384;2022-07-29T02:35:45;95565.66;;;20.22;100.00
4617;BME280;2321;42.704;23.384;2022-07-29T02:38:15;95551.13;;;20.29;100.00
4617;BME280;2321;42.704;23.384;2022-07-29T02:41:01;95553.56;;;20.30;100.00
4617;BME280;2321;42.704;23.384;2022-07-29T02:43:30;95557.69;;;20.33;100.00
4617;BME280;2321;42.704;23.384;2022-07-29T02:45:58;95556.59;;;20.34;100.00
4617;BME280;2321;42.704;23.384;2022-07-29T02:48:36;95548.81;;;20.38;100.00
4617;BME280;2321;42.704;23.384;2022-07-29T02:51:08;95543.16;;;20.39;100.00
4617;BME280;2321;42.704;23.384;2022-07-29T02:53:38;95550.78;;;20.42;100.00
4617;BME280;2321;42.704;23.384;2022-07-29T02:56:13;95557.84;;;20.49;100.00
4617;BME280;2321;42.704;23.384;2022-07-29T02:58:45;95567.41;;;20.56;100.00
4617;BME280;2321;42.704;23.384;2022-07-29T03:01:16;95564.44;;;20.58;100.00
4617;BME280;2321;42.704;23.384;2022-07-29T03:03:49;95553.84;;;20.51;100.00
4617;BME280;2321;42.704;23.384;2022-07-29T03:06:18;95559.28;;;20.34;100.00
4617;BME280;2321;42.704;23.384;2022-07-29T03:08:46;95548.81;;;20.38;100.00
4617;BME280;2321;42.704;23.384;2022-07-29T03:11:14;95550.22;;;20.45;100.00
4617;BME280;2321;42.704;23.384;2022-07-29T03:13:42;95549.19;;;20.46;100.00
4617;BME280;2321;42.704;23.384;2022-07-29T03:16:11;95543.75;;;20.46;100.00
4617;BME280;2321;42.704;23.384;2022-07-29T03:18:39;95553.03;;;20.51;100.00
4617;BME280;2321;42.704;23.384;2022-07-29T03:21:08;95555.13;;;20.49;100.00
4617;BME280;2321;42.704;23.384;2022-07-29T03:23:35;95551.94;;;20.52;100.00
4617;BME280;2321;42.704;23.384;2022-07-29T03:26:02;95541.88;;;20.47;100.00
4617;BME280;2321;42.704;23.384;2022-07-29T03:28:29;95554.34;;;20.48;100.00
4617;BME280;2321;42.704;23.384;2022-07-29T03:30:56;95548.34;;;20.46;100.00
4617;BME280;2321;42.704;23.384;2022-07-29T03:33:23;95549.63;;;20.38;100.00
4617;BME280;2321;42.704;23.384;2022-07-29T03:35:50;95556.41;;;20.41;100.00
4617;BME280;2321;42.704;23.384;2022-07-29T03:38:19;95551.81;;;20.41;100.00
4617;BME280;2321;42.704;23.384;2022-07-29T03:40:51;95546.09;;;20.38;100.00
4617;BME280;2321;42.704;23.384;2022-07-29T03:43:20;95558.28;;;20.40;100.00
4617;BME280;2321;42.704;23.384;2022-07-29T03:45:51;95548.06;;;20.42;100.00
4617;BME280;2321;42.704;23.384;2022-07-29T03:48:21;95556.09;;;20.37;100.00
4617;BME280;2321;42.704;23.384;2022-07-29T03:50:50;95560.16;;;20.40;100.00
4617;BME280;2321;42.704;23.384;2022-07-29T03:53:18;95564.28;;;20.42;100.00
4617;BME280;2321;42.704;23.384;2022-07-29T03:55:48;95564.53;;;20.41;100.00
4617;BME280;2321;42.704;23.384;2022-07-29T03:58:18;95563.97;;;20.39;100.00
4617;BME280;2321;42.704;23.384;2022-07-29T04:00:46;95560.94;;;20.35;100.00
4617;BME280;2321;42.704;23.384;2022-07-29T04:03:14;95565.78;;;20.33;100.00
4617;BME280;2321;42.704;23.384;2022-07-29T04:05:41;95564.78;;;20.39;100.00
4617;BME280;2321;42.704;23.384;2022-07-29T04:08:08;95571.50;;;20.36;100.00
4617;BME280;2321;42.704;23.384;2022-07-29T04:10:37;95570.09;;;20.34;100.00
4617;BME280;2321;42.704;23.384;2022-07-29T04:13:04;95568.56;;;20.38;100.00
4617;BME280;2321;42.704;23.384;2022-07-29T04:15:31;95572.91;;;20.39;100.00
4617;BME280;2321;42.704;23.384;2022-07-29T04:17:58;95570.44;;;20.38;100.00
4617;BME280;2321;42.704;23.384;2022-07-29T04:20:25;95562.88;;;20.40;100.00
4617;BME280;2321;42.704;23.384;2022-07-29T04:22:52;95565.16;;;20.48;100.00
4617;BME280;2321;42.704;23.384;2022-07-29T04:25:19;95566.34;;;20.57;100.00
4617;BME280;2321;42.704;23.384;2022-07-29T04:27:48;95559.94;;;20.64;100.00
4617;BME280;2321;42.704;23.384;2022-07-29T04:30:27;95559.22;;;20.74;100.00
4617;BME280;2321;42.704;23.384;2022-07-29T04:32:54;95566.31;;;20.80;100.00
4617;BME280;2321;42.704;23.384;2022-07-29T04:35:21;95553.66;;;20.86;100.00
4617;BME280;2321;42.704;23.384;2022-07-29T04:37:48;95566.78;;;20.99;100.00
4617;BME280;2321;42.704;23.384;2022-07-29T04:40:15;95569.75;;;20.98;100.00
4617;BME280;2321;42.704;23.384;2022-07-29T04:42:42;95576.88;;;21.04;100.00
4617;BME280;2321;42.704;23.384;2022-07-29T04:45:10;95583.16;;;21.10;100.00
4617;BME280;2321;42.704;23.384;2022-07-29T04:47:38;95583.09;;;21.05;100.00
4617;BME280;2321;42.704;23.384;2022-07-29T04:50:06;95583.22;;;21.15;100.00
4617;BME280;2321;42.704;23.384;2022-07-29T04:52:33;95587.38;;;21.28;100.00
4617;BME280;2321;42.704;23.384;2022-07-29T04:55:00;95582.59;;;21.36;100.00
4617;BME280;2321;42.704;23.384;2022-07-29T04:57:27;95579.69;;;21.42;100.00
4617;BME280;2321;42.704;23.384;2022-07-29T04:59:54;95589.44;;;21.43;100.00
4617;BME280;2321;42.704;23.384;2022-07-29T05:02:23;95586.50;;;21.50;100.00
4617;BME280;2321;42.704;23.384;2022-07-29T05:04:50;95600.16;;;21.61;100.00
4617;BME280;2321;42.704;23.384;2022-07-29T05:07:17;95593.69;;;21.67;100.00
4617;BME280;2321;42.704;23.384;2022-07-29T05:09:44;95598.06;;;21.73;100.00
4617;BME280;2321;42.704;23.384;2022-07-29T05:12:11;95594.53;;;21.73;100.00
4617;BME280;2321;42.704;23.384;2022-07-29T05:14:38;95598.94;;;21.79;100.00
4617;BME280;2321;42.704;23.384;2022-07-29T05:17:05;95595.72;;;21.87;100.00
4617;BME280;2321;42.704;23.384;2022-07-29T05:19:33;95596.56;;;21.88;100.00
4617;BME280;2321;42.704;23.384;2022-07-29T05:22:00;95605.56;;;21.94;100.00
4617;BME280;2321;42.704;23.384;2022-07-29T05:24:27;95603.69;;;21.99;100.00
4617;BME280;2321;42.704;23.384;2022-07-29T05:26:54;95608.09;;;22.11;100.00
4617;BME280;2321;42.704;23.384;2022-07-29T05:29:21;95604.94;;;22.25;100.00
4617;BME280;2321;42.704;23.384;2022-07-29T05:31:48;95604.13;;;22.29;100.00
4617;BME280;2321;42.704;23.384;2022-07-29T05:34:17;95600.69;;;22.39;100.00
4617;BME280;2321;42.704;23.384;2022-07-29T05:36:46;95598.03;;;22.50;100.00
4617;BME280;2321;42.704;23.384;2022-07-29T05:39:13;95594.28;;;22.61;100.00
4617;BME280;2321;42.704;23.384;2022-07-29T05:41:40;95602.41;;;22.67;100.00
4617;BME280;2321;42.704;23.384;2022-07-29T05:44:07;95592.97;;;22.69;100.00
4617;BME280;2321;42.704;23.384;2022-07-29T05:46:34;95595.44;;;22.76;100.00
4617;BME280;2321;42.704;23.384;2022-07-29T05:49:01;95603.09;;;22.84;100.00
4617;BME280;2321;42.704;23.384;2022-07-29T05:51:28;95604.97;;;22.89;100.00
4617;BME280;2321;42.704;23.384;2022-07-29T05:53:57;95603.38;;;22.99;100.00
4617;BME280;2321;42.704;23.384;2022-07-29T05:56:25;95611.56;;;23.09;100.00
4617;BME280;2321;42.704;23.384;2022-07-29T05:58:52;95617.00;;;23.20;100.00
4617;BME280;2321;42.704;23.384;2022-07-29T06:01:20;95613.78;;;23.33;100.00
4617;BME280;2321;42.704;23.384;2022-07-29T06:03:47;95612.13;;;23.37;100.00
4617;BME280;2321;42.704;23.384;2022-07-29T06:06:14;95610.53;;;23.42;100.00
4617;BME280;2321;42.704;23.384;2022-07-29T06:08:41;95609.22;;;23.55;100.00
4617;BME280;2321;42.704;23.384;2022-07-29T06:11:09;95604.84;;;23.59;100.00
4617;BME280;2321;42.704;23.384;2022-07-29T06:13:36;95608.13;;;23.66;100.00
4617;BME280;2321;42.704;23.384;2022-07-29T06:16:04;95610.81;;;23.77;100.00
4617;BME280;2321;42.704;23.384;2022-07-29T06:18:31;95608.94;;;23.88;100.00
4617;BME280;2321;42.704;23.384;2022-07-29T06:20:58;95618.44;;;24.01;100.00
4617;BME280;2321;42.704;23.384;2022-07-29T06:23:25;95613.50;;;24.24;100.00
4617;BME280;2321;42.704;23.384;2022-07-29T06:25:52;95609.69;;;24.35;100.00
4617;BME280;2321;42.704;23.384;2022-07-29T06:28:20;95611.06;;;24.43;100.00
4617;BME280;2321;42.704;23.384;2022-07-29T06:30:47;95610.22;;;24.53;100.00
4617;BME280;2321;42.704;23.384;2022-07-29T06:33:18;95612.06;;;24.63;100.00
4617;BME280;2321;42.704;23.384;2022-07-29T06:35:45;95603.31;;;24.77;97.91
4617;BME280;2321;42.704;23.384;2022-07-29T06:38:13;95601.94;;;24.79;97.53
4617;BME280;2321;42.704;23.384;2022-07-29T06:40:43;95603.25;;;24.92;97.69
4617;BME280;2321;42.704;23.384;2022-07-29T06:43:34;95605.66;;;25.05;93.35
4617;BME280;2321;42.704;23.384;2022-07-29T06:46:04;95598.78;;;25.12;91.77
4617;BME280;2321;42.704;23.384;2022-07-29T06:48:32;95597.41;;;25.20;87.62
4617;BME280;2321;42.704;23.384;2022-07-29T06:50:59;95598.66;;;25.33;88.47
4617;BME280;2321;42.704;23.384;2022-07-29T06:53:27;95594.53;;;25.41;84.83
4617;BME280;2321;42.704;23.384;2022-07-29T06:55:55;95595.00;;;25.49;83.92
4617;BME280;2321;42.704;23.384;2022-07-29T06:58:23;95600.09;;;25.61;79.44
4617;BME280;2321;42.704;23.384;2022-07-29T07:00:52;95598.16;;;25.66;79.55
4617;BME280;2321;42.704;23.384;2022-07-29T07:03:19;95597.88;;;25.68;77.61
4617;BME280;2321;42.704;23.384;2022-07-29T07:05:46;95596.44;;;25.76;78.89
4617;BME280;2321;42.704;23.384;2022-07-29T07:08:13;95597.47;;;25.85;79.92
4617;BME280;2321;42.704;23.384;2022-07-29T07:10:41;95596.31;;;25.92;78.79
4617;BME280;2321;42.704;23.384;2022-07-29T07:13:09;95589.13;;;26.06;76.57
4617;BME280;2321;42.704;23.384;2022-07-29T07:15:37;95595.56;;;26.16;78.20
4617;BME280;2321;42.704;23.384;2022-07-29T07:18:06;95599.50;;;26.29;77.25
4617;BME280;2321;42.704;23.384;2022-07-29T07:20:33;95601.84;;;26.41;76.60
4617;BME280;2321;42.704;23.384;2022-07-29T07:23:01;95595.50;;;26.51;77.14
4617;BME280;2321;42.704;23.384;2022-07-29T07:25:28;95597.28;;;26.61;76.21
4617;BME280;2321;42.704;23.384;2022-07-29T07:27:55;95599.31;;;26.74;74.15
4617;BME280;2321;42.704;23.384;2022-07-29T07:30:22;95592.66;;;26.81;71.78
4617;BME280;2321;42.704;23.384;2022-07-29T07:32:49;95594.53;;;26.85;71.76
4617;BME280;2321;42.704;23.384;2022-07-29T07:35:17;95585.44;;;26.90;72.93
4617;BME280;2321;42.704;23.384;2022-07-29T07:37:45;95588.66;;;26.97;74.17
4617;BME280;2321;42.704;23.384;2022-07-29T07:40:12;95586.28;;;27.10;73.11
4617;BME280;2321;42.704;23.384;2022-07-29T07:42:39;95578.78;;;27.21;71.39
4617;BME280;2321;42.704;23.384;2022-07-29T07:45:07;95575.59;;;27.33;68.83
4617;BME280;2321;42.704;23.384;2022-07-29T07:47:35;95586.66;;;27.42;67.68
4617;BME280;2321;42.704;23.384;2022-07-29T07:50:04;95588.34;;;27.57;64.47
4617;BME280;2321;42.704;23.384;2022-07-29T07:52:32;95584.34;;;27.69;65.78
4617;BME280;2321;42.704;23.384;2022-07-29T07:55:00;95582.63;;;27.73;65.36
4617;BME280;2321;42.704;23.384;2022-07-29T07:57:27;95580.94;;;27.77;64.79
4617;BME280;2321;42.704;23.384;2022-07-29T07:59:54;95584.03;;;27.90;62.67
4617;BME280;2321;42.704;23.384;2022-07-29T08:02:21;95585.97;;;28.03;61.67
4617;BME280;2321;42.704;23.384;2022-07-29T08:04:48;95588.09;;;28.06;62.50
4617;BME280;2321;42.704;23.384;2022-07-29T08:07:15;95579.41;;;28.18;58.83
4617;BME280;2321;42.704;23.384;2022-07-29T08:09:43;95585.00;;;28.27;61.99
4617;BME280;2321;42.704;23.384;2022-07-29T08:12:10;95589.25;;;28.34;57.35
4617;BME280;2321;42.704;23.384;2022-07-29T08:14:37;95585.72;;;28.47;58.52
4617;BME280;2321;42.704;23.384;2022-07-29T08:17:04;95581.78;;;28.54;56.71
4617;BME280;2321;42.704;23.384;2022-07-29T08:19:31;95586.06;;;28.60;54.11
4617;BME280;2321;42.704;23.384;2022-07-29T08:21:58;95588.06;;;28.68;55.01
4617;BME280;2321;42.704;23.384;2022-07-29T08:24:25;95586.34;;;28.73;54.81
4617;BME280;2321;42.704;23.384;2022-07-29T08:27:19;95556.50;;;28.71;54.05
4617;BME280;2321;42.704;23.384;2022-07-29T08:29:46;95569.59;;;28.88;56.67
4617;BME280;2321;42.704;23.384;2022-07-29T08:32:13;95569.97;;;28.96;53.89
4617;BME280;2321;42.704;23.384;2022-07-29T08:34:40;95573.94;;;29.03;52.68
4617;BME280;2321;42.704;23.384;2022-07-29T08:37:07;95568.66;;;29.07;53.82
4617;BME280;2321;42.704;23.384;2022-07-29T08:39:34;95570.78;;;29.10;50.90
4617;BME280;2321;42.704;23.384;2022-07-29T08:42:02;95561.41;;;29.11;52.94
4617;BME280;2321;42.704;23.384;2022-07-29T08:44:31;95567.81;;;29.21;52.13
4617;BME280;2321;42.704;23.384;2022-07-29T08:46:59;95564.72;;;29.36;51.80
4617;BME280;2321;42.704;23.384;2022-07-29T08:49:26;95567.66;;;29.40;51.38
4617;BME280;2321;42.704;23.384;2022-07-29T08:51:53;95566.00;;;29.39;51.67
4617;BME280;2321;42.704;23.384;2022-07-29T08:54:23;95536.13;;;29.29;50.76
4617;BME280;2321;42.704;23.384;2022-07-29T08:56:50;95561.91;;;29.51;51.92
4617;BME280;2321;42.704;23.384;2022-07-29T08:59:19;95563.72;;;29.55;50.93
4617;BME280;2321;42.704;23.384;2022-07-29T09:01:52;95563.84;;;29.73;52.90
4617;BME280;2321;42.704;23.384;2022-07-29T09:04:20;95555.81;;;29.77;49.65
4617;BME280;2321;42.704;23.384;2022-07-29T09:06:51;95561.22;;;29.91;48.45
4617;BME280;2321;42.704;23.384;2022-07-29T09:09:18;95563.34;;;29.94;48.32
4617;BME280;2321;42.704;23.384;2022-07-29T09:11:46;95558.69;;;30.04;49.08
4617;BME280;2321;42.704;23.384;2022-07-29T09:14:13;95548.41;;;30.09;47.25
4617;BME280;2321;42.704;23.384;2022-07-29T09:16:45;95544.22;;;30.21;47.19
4617;BME280;2321;42.704;23.384;2022-07-29T09:19:22;95545.59;;;30.32;45.15
4617;BME280;2321;42.704;23.384;2022-07-29T09:21:49;95553.88;;;30.41;45.33
4617;BME280;2321;42.704;23.384;2022-07-29T09:24:40;95550.84;;;30.52;43.16
4617;BME280;2321;42.704;23.384;2022-07-29T09:27:09;95541.97;;;30.55;40.86
4617;BME280;2321;42.704;23.384;2022-07-29T09:29:38;95544.41;;;30.56;41.59
4617;BME280;2321;42.704;23.384;2022-07-29T09:32:09;95550.00;;;30.42;43.50
4617;BME280;2321;42.704;23.384;2022-07-29T09:34:38;95552.66;;;30.24;43.21
4617;BME280;2321;42.704;23.384;2022-07-29T09:37:05;95541.56;;;30.30;44.17
4617;BME280;2321;42.704;23.384;2022-07-29T09:39:33;95544.66;;;30.37;44.33
4617;BME280;2321;42.704;23.384;2022-07-29T09:42:03;95547.44;;;30.55;43.64
4617;BME280;2321;42.704;23.384;2022-07-29T09:44:44;95545.88;;;30.72;42.99
4617;BME280;2321;42.704;23.384;2022-07-29T09:47:12;95535.22;;;30.79;42.08
4617;BME280;2321;42.704;23.384;2022-07-29T09:49:55;95535.72;;;30.90;41.18
4617;BME280;2321;42.704;23.384;2022-07-29T09:52:23;95530.88;;;30.96;41.29
4617;BME280;2321;42.704;23.384;2022-07-29T09:54:51;95533.66;;;31.05;42.07
4617;BME280;2321;42.704;23.384;2022-07-29T09:57:24;95527.03;;;31.06;39.12
4617;BME280;2321;42.704;23.384;2022-07-29T09:59:58;95521.22;;;31.16;42.10
4617;BME280;2321;42.704;23.384;2022-07-29T10:02:30;95516.84;;;31.33;42.70
4617;BME280;2321;42.704;23.384;2022-07-29T10:05:00;95528.47;;;31.39;40.10
4617;BME280;2321;42.704;23.384;2022-07-29T10:07:43;95520.22;;;31.48;38.98
4617;BME280;2321;42.704;23.384;2022-07-29T10:10:10;95521.53;;;31.59;40.28
4617;BME280;2321;42.704;23.384;2022-07-29T10:12:48;95510.19;;;31.61;40.50
4617;BME280;2321;42.704;23.384;2022-07-29T10:15:16;95509.69;;;31.77;38.99
4617;BME280;2321;42.704;23.384;2022-07-29T10:17:43;95501.91;;;31.79;38.55
4617;BME280;2321;42.704;23.384;2022-07-29T10:20:12;95509.50;;;31.82;38.50
4617;BME280;2321;42.704;23.384;2022-07-29T10:22:40;95511.91;;;31.92;39.38
4617;BME280;2321;42.704;23.384;2022-07-29T10:25:10;95497.34;;;31.83;36.69
4617;BME280;2321;42.704;23.384;2022-07-29T10:27:37;95500.09;;;31.92;37.89
4617;BME280;2321;42.704;23.384;2022-07-29T10:30:05;95497.28;;;32.01;37.31
4617;BME280;2321;42.704;23.384;2022-07-29T10:32:47;95487.88;;;32.02;35.87
4617;BME280;2321;42.704;23.384;2022-07-29T10:35:33;95492.72;;;32.05;35.88
4617;BME280;2321;42.704;23.384;2022-07-29T10:38:34;95490.25;;;32.21;37.90
4617;BME280;2321;42.704;23.384;2022-07-29T10:41:17;95495.41;;;32.32;36.52
4617;BME280;2321;42.704;23.384;2022-07-29T10:43:58;95483.16;;;32.42;36.46
4617;BME280;2321;42.704;23.384;2022-07-29T10:46:27;95482.81;;;32.52;37.30
4617;BME280;2321;42.704;23.384;2022-07-29T10:49:07;95482.94;;;32.56;36.41
4617;BME280;2321;42.704;23.384;2022-07-29T10:51:57;95472.38;;;32.58;37.27
4617;BME280;2321;42.704;23.384;2022-07-29T10:54:47;95479.63;;;32.71;37.20
4617;BME280;2321;42.704;23.384;2022-07-29T10:57:21;95467.72;;;32.80;35.51
4617;BME280;2321;42.704;23.384;2022-07-29T10:59:50;95463.25;;;32.75;36.19
4617;BME280;2321;42.704;23.384;2022-07-29T11:02:43;95472.22;;;32.84;36.34
4617;BME280;2321;42.704;23.384;2022-07-29T11:05:12;95460.53;;;32.88;35.40
4617;BME280;2321;42.704;23.384;2022-07-29T11:10:49;95451.53;;;33.00;36.80
4617;BME280;2321;42.704;23.384;2022-07-29T11:13:47;95451.84;;;32.98;35.90
4617;BME280;2321;42.704;23.384;2022-07-29T11:16:16;95445.22;;;32.99;36.62
4617;BME280;2321;42.704;23.384;2022-07-29T11:21:50;95440.47;;;33.21;37.30
4617;BME280;2321;42.704;23.384;2022-07-29T11:24:21;95437.50;;;33.26;37.25
4617;BME280;2321;42.704;23.384;2022-07-29T11:27:11;95434.66;;;33.35;37.00
4617;BME280;2321;42.704;23.384;2022-07-29T11:29:40;95441.13;;;33.52;36.35
4617;BME280;2321;42.704;23.384;2022-07-29T11:32:15;95430.34;;;33.59;36.52
4617;BME280;2321;42.704;23.384;2022-07-29T11:34:45;95431.72;;;33.66;35.48
4617;BME280;2321;42.704;23.384;2022-07-29T11:37:22;95430.25;;;33.68;36.12
4617;BME280;2321;42.704;23.384;2022-07-29T11:40:12;95433.56;;;33.74;35.02
4617;BME280;2321;42.704;23.384;2022-07-29T11:42:42;95432.09;;;33.77;35.95
4617;BME280;2321;42.704;23.384;2022-07-29T11:45:11;95432.22;;;33.80;35.76
4617;BME280;2321;42.704;23.384;2022-07-29T11:47:41;95427.03;;;33.79;35.01
4617;BME280;2321;42.704;23.384;2022-07-29T11:50:16;95426.03;;;33.84;34.72
4617;BME280;2321;42.704;23.384;2022-07-29T11:52:47;95419.00;;;33.86;35.52
4617;BME280;2321;42.704;23.384;2022-07-29T11:55:17;95420.19;;;33.85;34.70
4617;BME280;2321;42.704;23.384;2022-07-29T11:57:48;95423.97;;;33.93;35.15
4617;BME280;2321;42.704;23.384;2022-07-29T12:00:27;95421.56;;;34.04;34.96
4617;BME280;2321;42.704;23.384;2022-07-29T12:02:55;95429.59;;;34.09;34.89
4617;BME280;2321;42.704;23.384;2022-07-29T12:05:31;95424.78;;;34.06;34.16
4617;BME280;2321;42.704;23.384;2022-07-29T12:08:14;95421.19;;;34.18;34.52
4617;BME280;2321;42.704;23.384;2022-07-29T12:10:43;95419.25;;;34.19;34.04
4617;BME280;2321;42.704;23.384;2022-07-29T12:13:12;95411.41;;;34.21;34.08
4617;BME280;2321;42.704;23.384;2022-07-29T12:15:40;95409.31;;;34.30;34.08
4617;BME280;2321;42.704;23.384;2022-07-29T12:18:10;95414.16;;;34.33;33.29
4617;BME280;2321;42.704;23.384;2022-07-29T12:20:38;95411.28;;;34.42;34.59
4617;BME280;2321;42.704;23.384;2022-07-29T12:23:06;95410.72;;;34.49;34.24
4617;BME280;2321;42.704;23.384;2022-07-29T12:25:34;95407.34;;;34.56;33.54
4617;BME280;2321;42.704;23.384;2022-07-29T12:28:06;95414.16;;;34.59;32.81
4617;BME280;2321;42.704;23.384;2022-07-29T12:30:35;95410.44;;;34.67;33.06
4617;BME280;2321;42.704;23.384;2022-07-29T12:33:14;95405.34;;;34.69;32.04
4617;BME280;2321;42.704;23.384;2022-07-29T12:35:44;95405.81;;;34.71;32.48
4617;BME280;2321;42.704;23.384;2022-07-29T12:38:11;95401.06;;;34.72;32.81
4617;BME280;2321;42.704;23.384;2022-07-29T12:40:39;95405.56;;;34.76;32.59
4617;BME280;2321;42.704;23.384;2022-07-29T12:43:11;95401.03;;;34.84;33.36
4617;BME280;2321;42.704;23.384;2022-07-29T12:45:39;95402.41;;;34.91;32.47
4617;BME280;2321;42.704;23.384;2022-07-29T12:48:07;95393.09;;;34.95;32.65
4617;BME280;2321;42.704;23.384;2022-07-29T12:50:35;95402.09;;;34.92;32.80
4617;BME280;2321;42.704;23.384;2022-07-29T12:53:09;95391.19;;;34.99;32.47
4617;BME280;2321;42.704;23.384;2022-07-29T12:55:44;95386.59;;;35.04;31.88
4617;BME280;2321;42.704;23.384;2022-07-29T12:58:26;95384.03;;;35.11;32.27
4617;BME280;2321;42.704;23.384;2022-07-29T13:01:05;95385.78;;;35.03;31.37
4617;BME280;2321;42.704;23.384;2022-07-29T13:03:46;95376.88;;;35.10;32.32
4617;BME280;2321;42.704;23.384;2022-07-29T13:06:31;95371.34;;;35.10;31.79
4617;BME280;2321;42.704;23.384;2022-07-29T13:09:00;95360.53;;;35.05;31.97
4617;BME280;2321;42.704;23.384;2022-07-29T13:11:28;95365.72;;;35.06;32.24
4617;BME280;2321;42.704;23.384;2022-07-29T13:13:57;95359.03;;;35.07;31.92
4617;BME280;2321;42.704;23.384;2022-07-29T13:16:24;95359.91;;;35.11;32.38
4617;BME280;2321;42.704;23.384;2022-07-29T13:19:10;95369.81;;;35.13;32.21
4617;BME280;2321;42.704;23.384;2022-07-29T13:21:38;95358.84;;;35.16;31.81
4617;BME280;2321;42.704;23.384;2022-07-29T13:24:07;95356.44;;;35.15;31.71
4617;BME280;2321;42.704;23.384;2022-07-29T13:26:36;95354.56;;;35.19;31.74